Nearby METAR Reports

(scroll for additional cities)

 

KPSP - Palm Springs, California, USA
Distance from station: WNW 7mi, 11km
Updated: Sat, 28-Nov-2020 4:53pm PST
Clear
Clear
 Wind from varies
Wind: varies 6 mph , 9 km/h
Temperature: 66°F , 19°C
Dew Point: 21°F , -6°C
Humidity: 18%
Barometer: 30.13 inHg , 1020.3 hPa
Clouds: Clear
Visibility: 10 miles , 16 km
2020/11/29 00:53 KPSP 290053Z VRB05KT 10SM CLR 19/M06 A3013 RMK AO2 SLP204 T01941056
KTRM - Thermal/Palm Spg, California, USA
Distance from station: SE 16mi, 26km
Updated: Sat, 28-Nov-2020 4:52pm PST
Clear
Clear
 Wind from SSW
Wind: SSW 6 mph , 9 km/h
Temperature: 61°F , 16°C
Dew Point: 27°F , -3°C
Humidity: 27%
Barometer: 30.11 inHg , 1019.6 hPa
Clouds: Clear
Visibility: 10 miles , 16 km
2020/11/29 00:52 KTRM 290052Z AUTO 20005KT 10SM CLR 16/M03 A3011 RMK AO2 SLP197 T01561033 $
 
KNXP - Twentynine Palms, California, USA
Distance from station: NNE 37mi, 60km
Updated: Sat, 28-Nov-2020 3:56pm PST
Clear
Clear
 Wind from SW
Wind: SW 3 mph , 6 km/h
Temperature: 63°F , 17°C
Dew Point: 10°F , -12°C
Humidity: 13%
Barometer: 30.23 inHg , 1023.7 hPa
Clouds: Clear
Visibility: 10 miles , 16 km
2020/11/28 23:56 KNXP 282356Z AUTO 23003KT 10SM CLR 17/M12 A3023 RMK AO2 SLP222 T01671117 10183 20094 56010
KL35 - Big Bear City, California, USA
Distance from station: NW 43mi, 69km
Updated: Sat, 28-Nov-2020 4:35pm PST
Clear
Clear
 Wind from calm
Wind: Calm
Temperature: 41°F , 5°C
Dew Point: 5°F , -15°C
Humidity: 22%
Barometer: 30.24 inHg , 1024 hPa
Clouds: Clear
Visibility: 10 miles , 16 km
2020/11/29 00:35 KL35 290035Z AUTO 00000KT 10SM CLR 05/M15 A3024 RMK AO2
 
KF70 - Murrieta/Temecula, California, USA
Distance from station: WSW 45mi, 73km
Updated: Sat, 28-Nov-2020 4:35pm PST
Clear
Clear
 Wind from calm
Wind: Calm
Temperature: 68°F , 20°C
Dew Point: 21°F , -6°C
Humidity: 17%
Barometer: 30.09 inHg , 1019 hPa
Clouds: Clear
Visibility: 10 miles , 16 km
2020/11/29 00:35 KF70 290035Z AUTO 00000KT 10SM CLR 20/M06 A3009 RMK AO1
KRIV - Riverside/March, California, USA
Distance from station: W 51mi, 82km
Updated: Sat, 28-Nov-2020 3:58pm PST
Clear
Clear
 Wind from NW
Wind: NW 7 mph , 11 km/h
Temperature: 68°F , 20°C
Dew Point: 12°F , -11°C
Humidity: 11%
Barometer: 30.10 inHg , 1019.3 hPa
Clouds: Clear
Visibility: 10 miles , 16 km
2020/11/28 23:58 KRIV 282358Z AUTO 31006KT 10SM CLR 20/M11 A3010 RMK AO2 SLP190 T01991115 10225 20184 56007 $
 
KSBD - San Bernardino, California, USA
Distance from station: WNW 54mi, 86km
Updated: Sat, 28-Nov-2020 4:47pm PST
Clear
Clear
 Wind from WNW
Wind: WNW 3 mph , 6 km/h
Temperature: 68°F , 20°C
Dew Point: 14°F , -10°C
Humidity: 12%
Barometer: 30.10 inHg , 1019.3 hPa
Clouds: Clear
Visibility: 7 miles , 11 km
2020/11/29 00:47 KSBD 290047Z 30003KT 7SM SKC 20/M10 A3010
KRNM - Ramona, California, USA
Distance from station: SSW 60mi, 96km
Updated: Sat, 28-Nov-2020 4:53pm PST
Clear
Clear
 Wind from N
Wind: N 3 mph , 6 km/h
Temperature: 59°F , 15°C
Dew Point: 25°F , -4°C
Humidity: 27%
Barometer: 30.10 inHg , 1019.3 hPa
Clouds: Clear
Visibility: 10 miles , 16 km
2020/11/29 00:53 KRNM 290053Z 35003KT 10SM CLR 15/M04 A3010 RMK AO2 SLP190 T01501044
 
KRAL - Riverside, California, USA
Distance from station: W 62mi, 100km
Updated: Sat, 28-Nov-2020 4:53pm PST
Clear
Clear
 Wind from N
Wind: N 6 mph , 9 km/h
Temperature: 66°F , 19°C
Dew Point: 10°F , -12°C
Humidity: 11%
Barometer: 30.09 inHg , 1019 hPa
Clouds: Clear
Visibility: 10 miles , 16 km
2020/11/29 00:53 KRAL 290053Z 01005KT 10SM CLR 19/M12 A3009 RMK AO2 SLP180 T01941117
KOKB - Oceanside, California, USA
Distance from station: SW 68mi, 109km
Updated: Sat, 28-Nov-2020 4:52pm PST
Clear
Clear
 Wind from WSW
Wind: WSW 3 mph , 6 km/h
Temperature: 61°F , 16°C
Dew Point: 34°F , 1°C
Humidity: 36%
Barometer: 30.07 inHg , 1018.3 hPa
Clouds: Clear
Visibility: 10 miles , 16 km
2020/11/29 00:52 KOKB 290052Z AUTO 24003KT 10SM CLR 16/01 A3007 RMK AO2 SLP181 T01610006
 
KONT - Ontario, California, USA
Distance from station: WNW 71mi, 114km
Updated: Sat, 28-Nov-2020 4:53pm PST
Few Clouds
Few Clouds
 Wind from WNW
Wind: WNW 7 mph , 11 km/h
Temperature: 64°F , 18°C
Dew Point: 9°F , -13°C
Humidity: 11%
Barometer: 30.09 inHg , 1019 hPa
Clouds: Few Clouds
Visibility: 10 miles , 16 km
Cloud details: Few Clouds 25000 ft
2020/11/29 00:53 KONT 290053Z 30006KT 10SM FEW250 18/M13 A3009 RMK AO2 SLP189 T01781133
KNJK - El Centro Naf, California, USA
Distance from station: SSE 78mi, 126km
Updated: Sat, 28-Nov-2020 2:56pm PST
NOT Current
Clear
Clear
 Wind from SSW
Wind: SSW 3 mph , 6 km/h
Temperature: 70°F , 21°C
Dew Point: 9°F , -13°C
Humidity: 9%
Barometer: 30.14 inHg , 1020.7 hPa
Clouds: Clear
Visibility: 10 miles , 16 km
2020/11/28 22:56 KNJK 282256Z 21003KT 10SM CLR 21/M13 A3014 RMK SLP223 LAST T02061128
 
KSEE - San Diego/Santee, California, USA
Distance from station: SSW 74mi, 120km
Updated: Sat, 28-Nov-2020 4:47pm PST
Clear
Clear
 Wind from W
Wind: W 6 mph , 9 km/h
Temperature: 63°F , 17°C
Dew Point: 23°F , -5°C
Humidity: 22%
Barometer: 30.07 inHg , 1018.3 hPa
Clouds: Clear
Visibility: 10 miles , 16 km
2020/11/29 00:47 KSEE 290047Z 27005KT 10SM SKC 17/M05 A3007
KCNO - Chino, California, USA
Distance from station: W 72mi, 116km
Updated: Sat, 28-Nov-2020 4:53pm PST
Clear
Clear
 Wind from NNW
Wind: NNW 3 mph , 6 km/h
Temperature: 66°F , 19°C
Dew Point: 19°F , -7°C
Humidity: 17%
Barometer: 30.10 inHg , 1019.3 hPa
Clouds: Clear
Visibility: 7 miles , 11 km
2020/11/29 00:53 KCNO 290053Z 34003KT 7SM CLR 19/M07 A3010 RMK AO2 SLP191 T01891072

Metar display script from Saratoga-Weather.org